createdAt,value
2023-02-12T00:01:10.385Z,19.70
2023-02-12T00:03:39.199Z,21.70
2023-02-12T00:06:08.327Z,21.07
2023-02-12T00:08:37.272Z,20.80
2023-02-12T00:11:10.551Z,21.17
2023-02-12T00:13:40.593Z,20.23
2023-02-12T00:16:11.975Z,21.30
2023-02-12T00:18:40.391Z,22.47
2023-02-12T00:21:09.577Z,20.97
2023-02-12T00:23:38.993Z,20.93
2023-02-12T00:26:08.869Z,22.17
2023-02-12T00:28:37.625Z,22.90
2023-02-12T00:31:08.896Z,22.80
2023-02-12T00:33:37.527Z,21.00
2023-02-12T00:36:07.004Z,21.47
2023-02-12T00:38:35.190Z,21.40
2023-02-12T00:41:04.878Z,22.83
2023-02-12T00:43:33.121Z,21.50
2023-02-12T00:46:02.422Z,22.03
2023-02-12T00:48:32.281Z,24.77
2023-02-12T00:51:00.676Z,21.57
2023-02-12T00:53:29.768Z,23.93
2023-02-12T00:55:58.341Z,21.23
2023-02-12T00:58:26.981Z,23.67
2023-02-12T01:00:55.687Z,20.23
2023-02-12T01:03:25.228Z,22.17
2023-02-12T01:05:55.341Z,20.50
2023-02-12T01:08:24.049Z,20.13
2023-02-12T01:10:57.772Z,22.23
2023-02-12T01:13:27.097Z,20.80
2023-02-12T01:16:10.950Z,22.10
2023-02-12T01:18:40.102Z,21.40
2023-02-12T01:21:15.362Z,21.73
2023-02-12T01:23:44.342Z,20.80
2023-02-12T01:26:13.961Z,20.77
2023-02-12T01:28:43.556Z,20.90
2023-02-12T01:31:14.492Z,20.70
2023-02-12T01:33:42.811Z,21.13
2023-02-12T01:36:13.465Z,21.70
2023-02-12T01:38:41.701Z,23.53
2023-02-12T01:41:11.620Z,22.77
2023-02-12T01:43:40.528Z,20.47
2023-02-12T01:46:09.644Z,22.57
2023-02-12T01:48:41.772Z,21.27
2023-02-12T01:51:12.025Z,20.77
2023-02-12T01:53:46.753Z,21.50
2023-02-12T01:56:16.215Z,20.80
2023-02-12T01:58:46.436Z,21.20
2023-02-12T02:01:19.201Z,22.97
2023-02-12T02:03:51.285Z,22.63
2023-02-12T02:06:23.653Z,20.87
2023-02-12T02:08:53.159Z,22.00
2023-02-12T02:11:39.026Z,20.33
2023-02-12T02:14:24.948Z,21.43
2023-02-12T02:17:03.413Z,22.10
2023-02-12T02:19:51.218Z,20.90
2023-02-12T02:22:32.335Z,22.70
2023-02-12T02:25:37.267Z,20.80
2023-02-12T02:28:24.012Z,22.30
2023-02-12T02:30:58.605Z,21.50
2023-02-12T02:33:40.978Z,21.97
2023-02-12T02:36:26.163Z,22.83
2023-02-12T02:39:01.058Z,21.30
2023-02-12T02:41:34.336Z,22.77
2023-02-12T02:44:09.101Z,22.20
2023-02-12T02:46:44.496Z,23.30
2023-02-12T02:49:17.879Z,22.17
2023-02-12T02:51:48.919Z,21.60
2023-02-12T02:54:21.108Z,24.97
2023-02-12T02:56:52.008Z,23.40
2023-02-12T02:59:25.101Z,23.33
2023-02-12T03:01:59.099Z,24.70
2023-02-12T03:04:32.987Z,23.73
2023-02-12T03:07:07.498Z,22.60
2023-02-12T03:09:38.986Z,23.63
2023-02-12T03:12:12.643Z,23.13
2023-02-12T03:14:45.851Z,21.73
2023-02-12T03:17:21.696Z,23.10
2023-02-12T03:19:55.277Z,21.90
2023-02-12T03:22:29.148Z,21.53
2023-02-12T03:25:01.772Z,22.70
2023-02-12T03:27:33.656Z,24.90
2023-02-12T03:30:03.518Z,23.27
2023-02-12T03:32:42.440Z,24.10
2023-02-12T03:35:16.218Z,22.60
2023-02-12T03:37:50.822Z,23.97
2023-02-12T03:40:21.837Z,24.00
2023-02-12T03:42:56.456Z,23.00
2023-02-12T03:45:38.031Z,23.03
2023-02-12T03:48:14.149Z,23.13
2023-02-12T03:50:49.003Z,24.07
2023-02-12T03:53:17.054Z,23.50
2023-02-12T03:55:49.946Z,24.00
2023-02-12T03:58:22.963Z,25.53
2023-02-12T04:00:52.068Z,22.97
2023-02-12T04:03:21.771Z,23.53
2023-02-12T04:05:49.790Z,23.93
2023-02-12T04:08:17.948Z,22.93
2023-02-12T04:11:00.735Z,22.40
2023-02-12T04:13:39.092Z,22.20
2023-02-12T04:16:19.064Z,26.37
2023-02-12T04:18:50.551Z,23.40
2023-02-12T04:21:34.147Z,20.97
2023-02-12T04:24:08.961Z,21.47
2023-02-12T04:26:43.248Z,21.33
2023-02-12T04:29:20.456Z,20.13
2023-02-12T04:31:52.102Z,20.27
2023-02-12T04:34:27.754Z,21.07
2023-02-12T04:37:00.332Z,20.40
2023-02-12T04:39:30.951Z,19.67
2023-02-12T04:42:00.525Z,19.30
2023-02-12T04:44:31.126Z,21.10
2023-02-12T04:46:59.551Z,19.70
2023-02-12T04:49:29.462Z,20.17
2023-02-12T04:51:57.504Z,20.57
2023-02-12T04:54:25.921Z,19.87
2023-02-12T04:56:53.960Z,19.90
2023-02-12T04:59:22.284Z,20.77
2023-02-12T05:01:50.483Z,18.67
2023-02-12T05:04:19.837Z,19.33
2023-02-12T05:06:49.260Z,19.53
2023-02-12T05:09:19.851Z,20.23
2023-02-12T05:11:48.134Z,19.90
2023-02-12T05:14:16.490Z,20.17
2023-02-12T05:16:44.574Z,19.30
2023-02-12T05:19:13.044Z,18.03
2023-02-12T05:21:41.140Z,18.70
2023-02-12T05:24:10.761Z,19.13
2023-02-12T05:26:38.891Z,20.03
2023-02-12T05:29:06.971Z,18.60
2023-02-12T05:31:35.294Z,21.30
2023-02-12T05:34:03.707Z,19.03
2023-02-12T05:36:31.728Z,19.77
2023-02-12T05:39:01.114Z,20.07
2023-02-12T05:41:34.885Z,19.53
2023-02-12T05:44:03.537Z,20.40
2023-02-12T05:46:32.213Z,18.60
2023-02-12T05:49:00.336Z,19.77
2023-02-12T05:51:29.170Z,19.50
2023-02-12T05:54:00.097Z,20.87
2023-02-12T05:56:31.360Z,19.87
2023-02-12T05:59:02.224Z,20.10
2023-02-12T06:01:33.952Z,19.23
2023-02-12T06:04:03.075Z,19.03
2023-02-12T06:06:32.283Z,19.87
2023-02-12T06:09:00.961Z,20.27
2023-02-12T06:11:30.410Z,19.77
2023-02-12T06:13:58.483Z,20.13
2023-02-12T06:16:27.800Z,22.03
2023-02-12T06:18:57.103Z,21.17
2023-02-12T06:21:27.612Z,20.00
2023-02-12T06:23:56.178Z,20.93
2023-02-12T06:26:25.769Z,21.57
2023-02-12T06:28:55.224Z,23.37
2023-02-12T06:31:25.534Z,24.60
2023-02-12T06:33:56.341Z,21.33
2023-02-12T06:36:25.222Z,25.13
2023-02-12T06:38:53.372Z,24.70
2023-02-12T06:41:22.248Z,24.07
2023-02-12T06:43:50.493Z,23.77
2023-02-12T06:46:20.049Z,23.27
2023-02-12T06:48:48.176Z,23.87
2023-02-12T06:51:18.327Z,23.77
2023-02-12T06:53:46.834Z,25.03
2023-02-12T06:56:15.596Z,24.50
2023-02-12T06:58:45.865Z,26.20
2023-02-12T07:01:17.988Z,25.10
2023-02-12T07:03:50.198Z,24.60
2023-02-12T07:06:18.940Z,25.20
2023-02-12T07:08:47.409Z,25.37
2023-02-12T07:11:15.970Z,26.27
2023-02-12T07:13:44.824Z,25.73
2023-02-12T07:16:15.676Z,26.47
2023-02-12T07:18:45.327Z,25.40
2023-02-12T07:21:16.102Z,27.50
2023-02-12T07:23:50.796Z,26.13
2023-02-12T07:26:20.953Z,26.60
2023-02-12T07:28:49.237Z,26.27
2023-02-12T07:31:19.680Z,26.97
2023-02-12T07:33:48.472Z,27.13
2023-02-12T07:36:20.237Z,27.60
2023-02-12T07:38:48.926Z,25.10
2023-02-12T07:41:19.400Z,26.63
2023-02-12T07:43:49.957Z,26.97
2023-02-12T07:46:20.313Z,33.15
2023-02-12T07:48:49.509Z,28.43
2023-02-12T07:51:19.900Z,27.00
2023-02-12T07:53:48.549Z,26.87
2023-02-12T07:56:18.148Z,27.37
2023-02-12T07:58:48.066Z,26.27
2023-02-12T08:01:19.170Z,28.53
2023-02-12T08:03:48.229Z,31.67
2023-02-12T08:06:21.092Z,28.40
2023-02-12T08:08:49.597Z,28.70
2023-02-12T08:11:18.448Z,33.70
2023-02-12T08:13:46.870Z,34.70
2023-02-12T08:16:17.174Z,28.63
2023-02-12T08:18:46.104Z,28.60
2023-02-12T08:21:16.301Z,31.50
2023-02-12T08:23:46.926Z,36.10
2023-02-12T08:26:16.938Z,28.70
2023-02-12T08:28:46.915Z,27.60
2023-02-12T08:31:16.862Z,27.53
2023-02-12T08:33:46.121Z,28.50
2023-02-12T08:36:16.378Z,28.73
2023-02-12T08:38:46.854Z,27.07
2023-02-12T08:41:17.777Z,28.00
2023-02-12T08:43:46.876Z,25.60
2023-02-12T08:46:16.789Z,25.60
2023-02-12T08:48:45.758Z,26.40
2023-02-12T08:51:16.855Z,26.00
2023-02-12T08:53:49.147Z,26.77
2023-02-12T08:56:18.787Z,23.40
2023-02-12T08:58:47.342Z,22.83
2023-02-12T09:01:17.261Z,25.27
2023-02-12T09:03:46.516Z,21.00
2023-02-12T09:06:15.964Z,25.23
2023-02-12T09:08:44.524Z,22.10
2023-02-12T09:11:16.844Z,20.73
2023-02-12T09:13:45.988Z,21.57
2023-02-12T09:16:15.344Z,20.40
2023-02-12T09:18:43.585Z,20.97
2023-02-12T09:21:13.641Z,19.97
2023-02-12T09:23:41.986Z,19.67
2023-02-12T09:26:12.212Z,22.00
2023-02-12T09:28:42.074Z,21.87
2023-02-12T09:31:12.619Z,21.47
2023-02-12T09:33:41.561Z,26.53
2023-02-12T09:36:12.531Z,18.17
2023-02-12T09:38:40.913Z,25.97
2023-02-12T09:41:43.861Z,24.70
2023-02-12T09:44:21.760Z,25.50
2023-02-12T09:46:54.736Z,21.53
2023-02-12T09:49:40.349Z,24.90
2023-02-12T09:52:17.336Z,24.03
2023-02-12T09:54:46.262Z,20.67
2023-02-12T09:57:20.504Z,19.03
2023-02-12T09:59:55.361Z,19.57
2023-02-12T10:02:24.824Z,18.67
2023-02-12T10:05:01.693Z,20.20
2023-02-12T10:07:56.590Z,19.70
2023-02-12T10:10:35.582Z,34.17
2023-02-12T10:13:06.625Z,15.80
2023-02-12T10:15:47.654Z,14.90
2023-02-12T10:18:40.080Z,15.60
2023-02-12T10:21:24.979Z,10.03
2023-02-12T10:24:12.310Z,9.20
2023-02-12T10:26:44.259Z,12.10
2023-02-12T10:29:17.180Z,6.80
2023-02-12T10:31:51.384Z,9.87
2023-02-12T10:34:23.004Z,5.80
2023-02-12T10:36:55.521Z,4.53
2023-02-12T10:39:27.331Z,5.50
2023-02-12T10:42:02.633Z,6.00
2023-02-12T10:44:31.032Z,5.30
2023-02-12T10:47:00.614Z,6.67
2023-02-12T10:49:32.924Z,5.30
2023-02-12T10:52:13.485Z,5.07
2023-02-12T10:54:44.103Z,5.07
2023-02-12T10:57:20.485Z,5.03
2023-02-12T10:59:50.734Z,4.20
2023-02-12T11:02:29.611Z,4.63
2023-02-12T11:04:59.625Z,3.47
2023-02-12T11:07:28.803Z,4.47
2023-02-12T11:09:58.351Z,3.80
2023-02-12T11:12:33.517Z,3.70
2023-02-12T11:15:04.093Z,3.60
2023-02-12T11:17:43.158Z,3.30
2023-02-12T11:20:29.105Z,3.60
2023-02-12T11:22:59.923Z,3.90
2023-02-12T11:25:30.898Z,3.57
2023-02-12T11:28:05.106Z,4.00
2023-02-12T11:30:34.085Z,3.60
2023-02-12T11:33:23.484Z,3.33
2023-02-12T11:35:56.699Z,2.83
2023-02-12T11:38:28.237Z,3.20
2023-02-12T11:41:00.468Z,2.60
2023-02-12T11:43:31.119Z,1.97
2023-02-12T11:46:01.660Z,3.13
2023-02-12T11:48:34.914Z,2.90
2023-02-12T11:51:06.136Z,3.17
2023-02-12T11:53:36.487Z,2.57
2023-02-12T11:56:08.164Z,3.20
2023-02-12T11:58:36.229Z,2.30
2023-02-12T12:01:15.046Z,2.60
2023-02-12T12:03:53.377Z,3.00
2023-02-12T12:06:33.957Z,2.27
2023-02-12T12:09:07.601Z,2.60
2023-02-12T12:11:42.793Z,4.10
2023-02-12T12:14:18.655Z,2.70
2023-02-12T12:17:13.617Z,21.50
2023-02-12T12:19:54.982Z,4.30
2023-02-12T12:22:40.727Z,4.10
2023-02-12T12:25:22.306Z,4.27
2023-02-12T12:28:11.070Z,6.43
2023-02-12T12:30:54.276Z,5.10
2023-02-12T12:33:33.866Z,5.43
2023-02-12T12:36:33.012Z,4.40
2023-02-12T12:39:08.412Z,5.30
2023-02-12T12:41:43.166Z,6.53
2023-02-12T12:44:26.988Z,6.27
2023-02-12T12:47:11.511Z,6.83
2023-02-12T12:49:53.274Z,6.57
2023-02-12T12:52:42.542Z,7.70
2023-02-12T12:55:36.484Z,7.20
2023-02-12T12:58:14.027Z,7.77
2023-02-12T13:01:05.127Z,7.10
2023-02-12T13:04:05.958Z,6.57
2023-02-12T13:06:47.399Z,5.80
2023-02-12T13:09:49.204Z,5.80
2023-02-12T13:12:39.612Z,5.63
2023-02-12T13:15:17.522Z,6.57
2023-02-12T13:17:52.709Z,6.97
2023-02-12T13:20:28.031Z,6.57
2023-02-12T13:23:01.121Z,6.90
2023-02-12T13:25:37.930Z,9.00
2023-02-12T13:28:10.890Z,9.30
2023-02-12T13:30:44.761Z,8.73
2023-02-12T13:33:18.950Z,9.90
2023-02-12T13:35:49.493Z,10.30
2023-02-12T13:38:23.653Z,8.50
2023-02-12T13:40:55.917Z,8.13
2023-02-12T13:43:40.908Z,8.03
2023-02-12T13:46:15.518Z,8.40
2023-02-12T13:48:55.357Z,10.10
2023-02-12T13:51:33.187Z,9.33
2023-02-12T13:54:13.056Z,9.33
2023-02-12T13:56:45.057Z,8.13
2023-02-12T13:59:47.995Z,9.67
2023-02-12T14:02:44.274Z,10.03
2023-02-12T14:05:26.163Z,9.13
2023-02-12T14:07:56.512Z,8.63
2023-02-12T14:10:29.031Z,9.00
2023-02-12T14:13:11.108Z,8.70
2023-02-12T14:15:44.456Z,8.47
2023-02-12T14:18:33.297Z,8.43
2023-02-12T14:21:37.911Z,9.07
2023-02-12T14:24:41.951Z,7.87
2023-02-12T14:27:22.899Z,8.40
2023-02-12T14:30:24.221Z,8.00
2023-02-12T14:33:18.887Z,7.43
2023-02-12T14:35:47.823Z,8.07
2023-02-12T14:39:01.267Z,6.90
2023-02-12T14:41:41.776Z,6.17
2023-02-12T14:44:45.578Z,6.47
2023-02-12T14:47:31.234Z,6.50
2023-02-12T14:50:04.696Z,6.10
2023-02-12T14:52:39.105Z,6.93
2023-02-12T14:55:19.853Z,7.17
2023-02-12T14:57:48.384Z,6.40
2023-02-12T15:00:26.682Z,6.73
2023-02-12T15:02:59.105Z,6.60
2023-02-12T15:05:31.614Z,7.20
2023-02-12T15:08:03.211Z,6.70
2023-02-12T15:10:35.575Z,7.17
2023-02-12T15:13:16.009Z,6.70
2023-02-12T15:15:51.479Z,6.70
2023-02-12T15:18:26.524Z,7.40
2023-02-12T15:21:02.390Z,7.63
2023-02-12T15:23:39.680Z,7.20
2023-02-12T15:26:14.545Z,7.57
2023-02-12T15:28:43.467Z,7.40
2023-02-12T15:31:16.337Z,7.83
2023-02-12T15:33:48.873Z,8.17
2023-02-12T15:36:21.174Z,9.40
2023-02-12T15:38:52.335Z,8.80
2023-02-12T15:41:30.020Z,9.37
2023-02-12T15:43:58.438Z,10.70
2023-02-12T15:46:26.820Z,10.10
2023-02-12T15:48:55.499Z,10.10
2023-02-12T15:51:31.004Z,11.10
2023-02-12T15:54:00.727Z,10.47
2023-02-12T15:56:29.422Z,10.40
2023-02-12T15:58:59.186Z,11.00
2023-02-12T16:01:29.232Z,11.37
2023-02-12T16:03:59.542Z,11.50
2023-02-12T16:06:34.137Z,10.90
2023-02-12T16:09:05.715Z,10.70
2023-02-12T16:11:34.642Z,9.33
2023-02-12T16:14:05.586Z,11.67
2023-02-12T16:16:41.739Z,11.13
2023-02-12T16:19:19.866Z,11.70
2023-02-12T16:21:51.332Z,10.53
2023-02-12T16:24:29.199Z,12.23
2023-02-12T16:26:58.678Z,11.00
2023-02-12T16:29:27.072Z,10.90
2023-02-12T16:31:57.906Z,12.33
2023-02-12T16:34:35.420Z,12.57
2023-02-12T16:37:29.592Z,12.40
2023-02-12T16:40:21.416Z,12.97
2023-02-12T16:43:04.401Z,13.17
2023-02-12T16:45:44.049Z,14.40
2023-02-12T16:48:19.014Z,14.53
2023-02-12T16:50:50.291Z,15.37
2023-02-12T16:53:47.352Z,15.60
2023-02-12T16:56:18.862Z,16.43
2023-02-12T16:58:48.811Z,16.47
2023-02-12T17:01:20.094Z,15.43
2023-02-12T17:03:50.534Z,16.17
2023-02-12T17:06:23.411Z,15.70
2023-02-12T17:08:53.347Z,15.90
2023-02-12T17:11:23.111Z,16.50
2023-02-12T17:13:54.340Z,15.73
2023-02-12T17:16:31.854Z,16.30
2023-02-12T17:19:00.756Z,17.13
2023-02-12T17:21:31.648Z,18.20
2023-02-12T17:24:01.147Z,16.70
2023-02-12T17:26:29.224Z,19.30
2023-02-12T17:29:05.186Z,16.47
2023-02-12T17:31:33.687Z,16.80
2023-02-12T17:34:02.106Z,18.97
2023-02-12T17:36:30.265Z,19.00
2023-02-12T17:38:58.363Z,18.60
2023-02-12T17:41:28.002Z,17.70
2023-02-12T17:43:56.081Z,19.17
2023-02-12T17:46:25.996Z,18.13
2023-02-12T17:48:54.194Z,17.57
2023-02-12T17:51:22.633Z,20.77
2023-02-12T17:53:50.844Z,19.03
2023-02-12T17:56:20.572Z,19.50
2023-02-12T17:58:50.517Z,19.47
2023-02-12T18:01:20.611Z,17.10
2023-02-12T18:03:51.463Z,19.60
2023-02-12T18:06:24.085Z,17.87
2023-02-12T18:08:52.735Z,19.30
2023-02-12T18:11:21.138Z,17.87
2023-02-12T18:13:53.811Z,19.10
2023-02-12T18:16:22.720Z,19.27
2023-02-12T18:18:51.187Z,18.73
2023-02-12T18:21:19.417Z,17.10
2023-02-12T18:23:47.950Z,18.87
2023-02-12T18:26:18.406Z,17.73
2023-02-12T18:28:46.892Z,17.83
2023-02-12T18:31:17.148Z,19.90
2023-02-12T18:33:45.438Z,18.50
2023-02-12T18:36:15.621Z,20.83
2023-02-12T18:38:44.561Z,19.97
2023-02-12T18:41:14.640Z,17.10
2023-02-12T18:43:43.980Z,17.40
2023-02-12T18:46:14.711Z,18.33
2023-02-12T18:48:44.925Z,17.70
2023-02-12T18:51:16.067Z,17.70
2023-02-12T18:53:44.576Z,17.33
2023-02-12T18:56:13.680Z,17.23
2023-02-12T18:58:41.824Z,18.90
2023-02-12T19:01:17.153Z,20.93
2023-02-12T19:03:48.559Z,19.50
2023-02-12T19:06:16.985Z,20.00
2023-02-12T19:08:49.885Z,17.90
2023-02-12T19:11:18.271Z,17.70
2023-02-12T19:13:46.277Z,16.80
2023-02-12T19:16:16.606Z,17.03
2023-02-12T19:18:48.960Z,16.93
2023-02-12T19:21:17.866Z,16.07
2023-02-12T19:23:45.980Z,15.00
2023-02-12T19:26:16.273Z,16.10
2023-02-12T19:28:44.648Z,16.97
2023-02-12T19:31:15.229Z,16.73
2023-02-12T19:33:44.527Z,16.67
2023-02-12T19:36:16.496Z,15.30
2023-02-12T19:38:44.963Z,15.90
2023-02-12T19:41:15.296Z,13.60
2023-02-12T19:43:43.639Z,14.30
2023-02-12T19:46:13.332Z,13.57
2023-02-12T19:48:41.897Z,17.23
2023-02-12T19:51:15.678Z,13.53
2023-02-12T19:53:43.878Z,14.93
2023-02-12T19:56:12.035Z,15.30
2023-02-12T19:58:40.291Z,14.63
2023-02-12T20:01:10.802Z,13.70
2023-02-12T20:03:39.268Z,16.00
2023-02-12T20:06:10.963Z,12.83
2023-02-12T20:08:42.758Z,13.60
2023-02-12T20:11:12.351Z,13.77
2023-02-12T20:13:40.818Z,14.60
2023-02-12T20:16:11.755Z,12.57
2023-02-12T20:18:41.092Z,14.27
2023-02-12T20:21:10.780Z,15.20
2023-02-12T20:23:40.219Z,13.33
2023-02-12T20:26:10.199Z,14.50
2023-02-12T20:28:39.515Z,13.33
2023-02-12T20:31:12.099Z,14.00
2023-02-12T20:33:41.056Z,15.63
2023-02-12T20:36:11.324Z,17.30
2023-02-12T20:38:41.459Z,14.03
2023-02-12T20:41:10.620Z,14.40
2023-02-12T20:43:39.593Z,14.83
2023-02-12T20:46:09.777Z,14.40
2023-02-12T20:48:38.137Z,13.77
2023-02-12T20:51:07.856Z,15.83
2023-02-12T20:53:36.711Z,13.50
2023-02-12T20:56:08.456Z,14.77
2023-02-12T20:58:38.322Z,16.03
2023-02-12T21:01:07.917Z,14.50
2023-02-12T21:03:36.915Z,18.30
2023-02-12T21:06:05.939Z,14.17
2023-02-12T21:08:35.971Z,15.87
2023-02-12T21:11:07.844Z,15.53
2023-02-12T21:13:36.027Z,15.77
2023-02-12T21:16:09.584Z,16.13
2023-02-12T21:18:37.949Z,14.23
2023-02-12T21:21:08.603Z,18.07
2023-02-12T21:23:37.439Z,16.80
2023-02-12T21:26:08.632Z,13.17
2023-02-12T21:28:37.530Z,15.97
2023-02-12T21:31:10.468Z,18.50
2023-02-12T21:33:38.992Z,15.63
2023-02-12T21:36:08.872Z,14.20
2023-02-12T21:38:39.065Z,15.00
2023-02-12T21:41:10.230Z,15.50
2023-02-12T21:43:39.521Z,15.77
2023-02-12T21:46:08.555Z,12.20
2023-02-12T21:48:38.956Z,12.87
2023-02-12T21:51:07.808Z,11.80
2023-02-12T21:53:36.207Z,16.13
2023-02-12T21:56:04.955Z,15.63
2023-02-12T21:58:35.176Z,15.03
2023-02-12T22:01:08.479Z,14.30
2023-02-12T22:03:36.943Z,14.53
2023-02-12T22:06:06.865Z,13.33
2023-02-12T22:08:35.113Z,13.47
2023-02-12T22:11:04.115Z,15.30
2023-02-12T22:13:34.016Z,14.80
2023-02-12T22:16:10.224Z,14.03
2023-02-12T22:18:38.743Z,11.90
2023-02-12T22:21:10.725Z,15.80
2023-02-12T22:23:40.393Z,15.37
2023-02-12T22:26:10.207Z,15.67
2023-02-12T22:28:42.994Z,14.70
2023-02-12T22:31:12.751Z,12.07
2023-02-12T22:33:40.872Z,12.30
2023-02-12T22:36:10.876Z,12.63
2023-02-12T22:38:40.620Z,12.50
2023-02-12T22:41:10.733Z,11.93
2023-02-12T22:43:41.596Z,11.80
2023-02-12T22:46:11.979Z,14.60
2023-02-12T22:48:41.055Z,13.73
2023-02-12T22:51:10.535Z,12.90
2023-02-12T22:53:38.959Z,14.83
2023-02-12T22:56:08.869Z,12.23
2023-02-12T22:58:38.534Z,11.80
2023-02-12T23:01:09.219Z,11.27
2023-02-12T23:03:38.303Z,9.73
2023-02-12T23:06:08.410Z,9.97
2023-02-12T23:08:37.054Z,10.73
2023-02-12T23:11:07.172Z,11.37
2023-02-12T23:13:37.098Z,12.10
2023-02-12T23:16:05.809Z,11.10
2023-02-12T23:18:35.414Z,12.33
2023-02-12T23:21:03.433Z,9.00
2023-02-12T23:23:31.626Z,11.90
2023-02-12T23:25:59.678Z,11.60
2023-02-12T23:28:27.939Z,11.33
2023-02-12T23:30:56.847Z,11.63
2023-02-12T23:33:25.159Z,13.03
2023-02-12T23:35:54.748Z,10.60
2023-02-12T23:38:22.875Z,11.60
2023-02-12T23:40:51.009Z,13.00
2023-02-12T23:43:19.265Z,13.17
2023-02-12T23:45:47.933Z,12.77
2023-02-12T23:48:16.426Z,12.93
2023-02-12T23:50:48.779Z,13.13
2023-02-12T23:53:19.294Z,12.47
2023-02-12T23:55:49.952Z,12.30
2023-02-12T23:58:18.130Z,12.73
